AirNav   Air Wisconsin pilot careers
 
 492 users online  

27LL Sullivan Field Airport
Valmeyer, Illinois, USA

GOING TO VALMEYER?


FAA INFORMATION EFFECTIVE 29 MARCH 2018

Location

FAA Identifier: 27LL
Lat/Long: 38-22-30.1930N / 090-19-09.4220W
38-22.503217N / 090-19.157033W
38.3750536 / -90.3192839
(estimated)
Elevation: 400 ft. / 122 m (estimated)
Variation: 02E (1985)
From city: 4 miles N of VALMEYER, IL
Time zone: UTC -5 (UTC -6 during Standard Time)
Zip code: 62295

Airport Operations

Airport use: Private use. Permission required prior to landing
Activation date: 11/1977
Control tower: no
ARTCC: KANSAS CITY CENTER
FSS: COLUMBIA FLIGHT SERVICE STATION
Attendance: DAYLIGHT HOURS
Wind indicator: yes
Segmented circle: no

Airport Communications

WX ASOS at CPS (14 nm NE): PHONE 618-332-0001

Nearby radio navigation aids

VOR radial/distance  VOR name  Freq  Var
CSXr175/22.7CARDINAL VOR/DME116.4500E
TOYr217/28.8TROY VORTAC116.0004E
STLr164/30.1ST LOUIS VORTAC117.4001E
FTZr117/36.1FORISTELL VORTAC110.8005E

 
NDB name  Hdg/Dist  Freq  Var  ID
ACORE235/15.035000ECP -.-. .--.
CIVIC MEMORIAL203/33.426301WCVM -.-. ...- --

Airport Services

Runway Information

Runway 9/27

Dimensions: 1800 x 80 ft. / 549 x 24 m
Surface: turf
RUNWAY 9  RUNWAY 27
Traffic pattern: leftleft

Airport Ownership and Management from official FAA records

Ownership: Privately-owned
Owner: SULLIVAN FIELD
3223 CEDAR RIDGE LN
WATERLOO, IL 62298
Phone 618-939-4142
Manager: SULLIVAN FIELD INC (MIKE MERKAN)
8000 B ROAD
WATERLOO, IL 62298
Phone 618-939-4142

Airport Operational Statistics

Aircraft based on the field: 20
Single engine airplanes: 20
    

Instrument Procedures

There are no published instrument procedures at 27LL.

Some nearby airports with instrument procedures:

KFES - Festus Memorial Airport (11 nm S)
KCPS - St Louis Downtown Airport (14 nm NE)
KSTL - St Louis Lambert International Airport (23 nm N)
1H0 - Creve Coeur Airport (23 nm NW)
KSUS - Spirit of St Louis Airport (23 nm NW)
 
Loc | Ops | Rwys | IFR | FBO | Links
Com | Nav | Svcs | Stats | Notes

AirNav Hotels Sweepstakes
 
Area around 27LL (Sullivan Field Airport)
 
Road maps at: MapQuest Bing Google
 
Aerial photo
WARNING: Photo may not be current or correct
Aerial photo of 27LL (Sullivan Field Airport)
Do you have a better or more recent aerial photo of Sullivan Field Airport that you would like to share? If so, please send us your photo.

 
Sectional chart

 
Airport distance calculator
Flying to Sullivan Field Airport? Find the distance to fly.

From to 27LL

Sunrise and sunset
Times for 26-Apr-2018
 Local
(UTC-5)
 Zulu
(UTC)
Morning civil twilight05:4310:43
Sunrise06:1211:12
Sunset19:4700:47
Evening civil twilight20:1501:15

Current date and time
Zulu (UTC)  26-Apr-2018 10:35:26
Local (UTC-5)  26-Apr-2018 05:35:26
 
METAR
KCPS 
14nm NE 
261020Z AUTO 00000KT 1SM BR OVC080 10/09 A2990 RMK AO2 T01000094 TSNO $
KSTL 
23nm N 
260951Z 00000KT 10SM FEW100 OVC180 12/07 A2991 RMK AO2 SLP124 T01170067
KSUS 
23nm NW 
260954Z AUTO 00000KT 10SM OVC085 11/08 A2990 RMK AO2 SLP123 T01060083
KBLV 
25nm NE 
260956Z AUTO 06004KT 10SM OVC070 12/09 A2989 RMK AO2 SLP124 T01170093 $
TAF
KCPS 
14nm NE 
261005Z 2610/2706 01004KT 2SM BR OVC070 TEMPO 2610/2612 1/2SM FG FM261300 VRB03KT P6SM SCT060 FM261800 31007KT P6SM SCT250
NOTAMs
Click for the latest NOTAMs
NOTAMs are issued by the DoD/FAA and will open in a separate window not controlled by AirNav.

 

 
 

Would you like to see your business listed on this page?

 If your business provides an interesting product or service to pilots, flight crews, aircraft, or users of the Sullivan Field Airport, you should consider listing it here.  To start the listing process, click on the button below
 
Add a business
 

Other Pages about Sullivan Field Airport

Update a link
 
Copyright © AirNav, LLC. All rights reserved. Privacy Policy  Contact